createdAt,value
2019-02-28T00:00:41.432Z,46.10
2019-02-28T00:03:13.488Z,46.10
2019-02-28T00:05:46.072Z,46.20
2019-02-28T00:08:18.561Z,46.30
2019-02-28T00:10:50.720Z,46.40
2019-02-28T00:13:22.945Z,46.50
2019-02-28T00:15:54.867Z,46.50
2019-02-28T00:18:26.692Z,46.60
2019-02-28T00:20:58.950Z,46.50
2019-02-28T00:23:31.167Z,46.60
2019-02-28T00:26:03.307Z,46.60
2019-02-28T00:28:35.421Z,46.80
2019-02-28T00:31:07.321Z,47.00
2019-02-28T00:33:39.515Z,47.20
2019-02-28T00:36:11.664Z,47.40
2019-02-28T00:38:43.767Z,47.40
2019-02-28T00:41:16.288Z,47.30
2019-02-28T00:43:48.526Z,47.00
2019-02-28T00:46:20.811Z,46.60
2019-02-28T00:48:54.104Z,46.50
2019-02-28T00:51:29.762Z,46.50
2019-02-28T00:54:00.329Z,46.80
2019-02-28T00:56:32.183Z,46.90
2019-02-28T00:59:04.313Z,46.90
2019-02-28T01:01:36.447Z,47.10
2019-02-28T01:04:08.285Z,47.30
2019-02-28T01:06:41.718Z,47.60
2019-02-28T01:09:14.405Z,48.00
2019-02-28T01:11:46.269Z,48.20
2019-02-28T01:14:18.142Z,48.20
2019-02-28T01:16:50.229Z,48.50
2019-02-28T01:19:23.848Z,48.60
2019-02-28T01:21:56.290Z,48.70
2019-02-28T01:24:28.155Z,48.60
2019-02-28T01:26:59.976Z,48.60
2019-02-28T01:29:32.931Z,49.10
2019-02-28T01:32:05.365Z,48.30
2019-02-28T01:34:37.225Z,48.20
2019-02-28T01:37:09.166Z,48.30
2019-02-28T01:39:41.021Z,48.30
2019-02-28T01:42:13.152Z,48.30
2019-02-28T01:44:45.286Z,48.30
2019-02-28T01:47:19.882Z,48.40
2019-02-28T01:49:51.694Z,48.80
2019-02-28T01:52:24.240Z,48.70
2019-02-28T01:54:58.578Z,49.00
2019-02-28T01:57:30.616Z,49.10
2019-02-28T02:00:03.051Z,49.20
2019-02-28T02:02:38.009Z,49.50
2019-02-28T02:05:09.235Z,49.50
2019-02-28T02:07:42.352Z,49.50
2019-02-28T02:10:21.316Z,49.40
2019-02-28T02:12:53.615Z,49.20
2019-02-28T02:15:25.994Z,49.20
2019-02-28T02:17:57.931Z,48.70
2019-02-28T02:20:30.482Z,48.70
2019-02-28T02:23:03.040Z,48.80
2019-02-28T02:25:37.613Z,49.00
2019-02-28T02:28:08.678Z,49.20
2019-02-28T02:30:40.653Z,49.30
2019-02-28T02:33:14.447Z,49.40
2019-02-28T02:35:46.060Z,49.40
2019-02-28T02:38:18.001Z,49.50
2019-02-28T02:40:49.985Z,49.60
2019-02-28T02:43:23.035Z,49.70
2019-02-28T02:45:55.675Z,49.90
2019-02-28T02:48:27.575Z,49.90
2019-02-28T02:50:59.824Z,50.20
2019-02-28T02:53:31.664Z,50.40
2019-02-28T02:56:04.920Z,50.30
2019-02-28T02:58:36.920Z,50.50
2019-02-28T03:01:08.785Z,50.30
2019-02-28T03:03:44.284Z,50.20
2019-02-28T03:06:14.525Z,50.10
2019-02-28T03:08:46.399Z,50.10
2019-02-28T03:11:18.288Z,50.00
2019-02-28T03:13:50.181Z,49.60
2019-02-28T03:16:22.505Z,49.70
2019-02-28T03:18:58.209Z,50.00
2019-02-28T03:21:29.636Z,50.20
2019-02-28T03:24:01.586Z,50.50
2019-02-28T03:26:33.725Z,50.50
2019-02-28T03:29:07.963Z,50.50
2019-02-28T03:31:39.395Z,50.50
2019-02-28T03:34:14.066Z,50.60
2019-02-28T03:36:55.454Z,50.60
2019-02-28T03:39:24.257Z,50.60
2019-02-28T03:41:53.234Z,50.40
2019-02-28T03:44:26.498Z,50.60
2019-02-28T03:46:58.684Z,50.60
2019-02-28T03:49:31.077Z,50.60
2019-02-28T03:52:06.612Z,50.30
2019-02-28T03:54:36.477Z,50.30
2019-02-28T03:57:08.357Z,50.30
2019-02-28T03:59:40.296Z,50.40
2019-02-28T04:02:12.517Z,50.40
2019-02-28T04:04:50.123Z,51.10
2019-02-28T04:07:18.972Z,50.50
2019-02-28T04:09:51.107Z,51.30
2019-02-28T04:12:22.971Z,50.80
2019-02-28T04:14:55.202Z,50.60
2019-02-28T04:17:30.621Z,50.80
2019-02-28T04:20:00.996Z,51.00
2019-02-28T04:22:33.272Z,51.10
2019-02-28T04:25:05.345Z,51.10
2019-02-28T04:27:40.244Z,51.10
2019-02-28T04:30:10.917Z,51.00
2019-02-28T04:32:45.009Z,51.00
2019-02-28T04:35:17.256Z,51.00
2019-02-28T04:37:49.260Z,51.10
2019-02-28T04:40:21.092Z,51.00
2019-02-28T04:42:53.078Z,51.10
2019-02-28T04:45:26.245Z,51.30
2019-02-28T04:47:59.159Z,51.50
2019-02-28T04:50:32.217Z,51.50
2019-02-28T04:53:04.491Z,51.50
2019-02-28T04:55:37.997Z,51.40
2019-02-28T04:58:10.386Z,51.50
2019-02-28T05:00:42.609Z,51.60
2019-02-28T05:03:14.787Z,51.60
2019-02-28T05:05:47.663Z,51.70
2019-02-28T05:08:19.618Z,52.00
2019-02-28T05:10:55.664Z,52.30
2019-02-28T05:13:25.002Z,52.60
2019-02-28T05:15:57.031Z,52.60
2019-02-28T05:18:29.565Z,52.50
2019-02-28T05:21:02.300Z,52.50
2019-02-28T05:23:35.989Z,52.50
2019-02-28T05:26:08.247Z,52.50
2019-02-28T05:28:41.220Z,52.30
2019-02-28T05:31:13.537Z,52.20
2019-02-28T05:33:45.703Z,52.90
2019-02-28T05:36:17.964Z,52.40
2019-02-28T05:38:49.861Z,52.40
2019-02-28T05:41:21.807Z,52.90
2019-02-28T05:43:54.386Z,52.40
2019-02-28T05:46:27.047Z,52.40
2019-02-28T05:48:59.288Z,52.10
2019-02-28T05:51:31.694Z,52.00
2019-02-28T05:54:03.686Z,51.90
2019-02-28T05:56:35.890Z,52.00
2019-02-28T05:59:07.771Z,52.10
2019-02-28T06:01:39.623Z,52.00
2019-02-28T06:04:11.774Z,51.70
2019-02-28T06:06:43.894Z,51.90
2019-02-28T06:09:15.913Z,52.00
2019-02-28T06:11:48.495Z,52.10
2019-02-28T06:14:26.613Z,52.20
2019-02-28T06:16:54.170Z,52.20
2019-02-28T06:19:26.192Z,52.20
2019-02-28T06:21:59.457Z,52.30
2019-02-28T06:24:32.113Z,52.30
2019-02-28T06:27:06.586Z,52.50
2019-02-28T06:29:37.697Z,52.90
2019-02-28T06:32:09.637Z,52.80
2019-02-28T06:34:42.408Z,53.00
2019-02-28T06:37:14.912Z,54.00
2019-02-28T06:39:46.777Z,53.20
2019-02-28T06:42:19.354Z,53.30
2019-02-28T06:44:51.621Z,53.10
2019-02-28T06:47:23.757Z,52.20
2019-02-28T06:49:56.000Z,51.20
2019-02-28T06:52:27.960Z,50.10
2019-02-28T06:54:59.858Z,49.00
2019-02-28T06:57:33.073Z,47.60
2019-02-28T07:00:06.724Z,46.40
2019-02-28T07:02:38.946Z,45.20
2019-02-28T07:05:10.927Z,44.10
2019-02-28T07:07:45.649Z,43.40
2019-02-28T07:10:16.980Z,42.90
2019-02-28T07:12:49.104Z,42.70
2019-02-28T07:15:24.721Z,42.60
2019-02-28T07:17:55.311Z,41.80
2019-02-28T07:20:27.224Z,42.10
2019-02-28T07:22:59.083Z,41.90
2019-02-28T07:25:30.944Z,42.00
2019-02-28T07:28:03.036Z,41.40
2019-02-28T07:30:35.024Z,40.90
2019-02-28T07:33:10.505Z,41.20
2019-02-28T07:35:44.715Z,41.50
2019-02-28T07:38:17.216Z,41.10
2019-02-28T07:44:07.302Z,40.70
2019-02-28T07:46:42.607Z,40.50
2019-02-28T07:49:12.992Z,40.30
2019-02-28T07:51:45.145Z,40.60
2019-02-28T07:54:17.370Z,40.50
2019-02-28T07:56:49.262Z,39.90
2019-02-28T07:59:21.112Z,39.50
2019-02-28T08:01:53.014Z,39.50
2019-02-28T08:04:25.136Z,39.40
2019-02-28T08:06:57.565Z,38.50
2019-02-28T08:09:33.299Z,38.20
2019-02-28T08:12:06.616Z,37.50
2019-02-28T08:14:38.594Z,36.40
2019-02-28T08:17:10.615Z,35.40
2019-02-28T08:19:42.480Z,33.90
2019-02-28T08:22:14.756Z,31.70
2019-02-28T08:24:46.910Z,30.10
2019-02-28T08:27:19.494Z,29.60
2019-02-28T08:29:51.609Z,28.20
2019-02-28T08:32:23.517Z,27.30
2019-02-28T08:34:58.777Z,27.40
2019-02-28T08:37:29.446Z,27.00
2019-02-28T08:40:01.698Z,27.30
2019-02-28T08:42:38.700Z,27.10
2019-02-28T08:45:10.814Z,27.30
2019-02-28T08:47:43.555Z,27.30
2019-02-28T08:50:20.543Z,27.60
2019-02-28T08:52:53.032Z,26.70
2019-02-28T08:55:28.609Z,26.80
2019-02-28T08:58:05.021Z,26.30
2019-02-28T09:00:33.283Z,26.60
2019-02-28T09:03:06.202Z,26.10
2019-02-28T09:05:38.981Z,24.40
2019-02-28T09:08:10.965Z,23.90
2019-02-28T09:10:43.753Z,23.90
2019-02-28T09:13:16.689Z,23.10
2019-02-28T09:15:50.608Z,23.00
2019-02-28T09:18:22.255Z,22.70
2019-02-28T09:20:54.099Z,23.40
2019-02-28T09:23:25.978Z,22.60
2019-02-28T09:25:57.945Z,21.50
2019-02-28T09:28:29.933Z,21.90
2019-02-28T09:31:05.053Z,22.00
2019-02-28T09:33:35.482Z,21.30
2019-02-28T09:36:08.008Z,21.10
2019-02-28T09:38:42.288Z,21.00
2019-02-28T09:41:14.452Z,20.80
2019-02-28T09:43:46.983Z,21.00
2019-02-28T09:46:19.444Z,19.90
2019-02-28T09:48:51.697Z,19.50
2019-02-28T09:51:23.666Z,19.30
2019-02-28T09:53:55.906Z,18.90
2019-02-28T09:56:27.862Z,18.70
2019-02-28T09:59:03.071Z,18.60
2019-02-28T10:01:34.168Z,19.70
2019-02-28T10:04:06.176Z,19.20
2019-02-28T10:06:38.021Z,19.00
2019-02-28T10:09:10.035Z,19.00
2019-02-28T10:11:42.308Z,19.30
2019-02-28T10:14:14.819Z,19.20
2019-02-28T10:16:49.643Z,18.30
2019-02-28T10:19:20.553Z,18.40
2019-02-28T10:21:52.512Z,18.50
2019-02-28T10:24:24.945Z,18.30
2019-02-28T10:26:56.658Z,18.50
2019-02-28T10:29:28.833Z,17.10
2019-02-28T10:32:00.981Z,16.70
2019-02-28T10:34:35.338Z,16.30
2019-02-28T10:37:07.363Z,15.80
2019-02-28T10:39:40.240Z,16.10
2019-02-28T10:42:12.788Z,16.20
2019-02-28T10:44:44.956Z,17.00
2019-02-28T10:47:17.262Z,16.50
2019-02-28T10:49:49.146Z,16.30
2019-02-28T10:52:23.446Z,16.10
2019-02-28T10:54:55.283Z,17.00
2019-02-28T10:57:27.611Z,17.30
2019-02-28T10:59:59.494Z,17.70
2019-02-28T11:02:31.410Z,16.80
2019-02-28T11:05:03.284Z,16.90
2019-02-28T11:07:37.731Z,16.60
2019-02-28T11:10:09.542Z,16.20
2019-02-28T11:12:41.475Z,16.10
2019-02-28T11:15:13.858Z,16.00
2019-02-28T11:17:46.620Z,15.80
2019-02-28T11:20:22.134Z,16.10
2019-02-28T11:22:52.644Z,16.20
2019-02-28T11:25:26.890Z,16.60
2019-02-28T11:27:59.212Z,15.60
2019-02-28T11:30:31.132Z,15.60
2019-02-28T11:33:04.695Z,15.90
2019-02-28T11:35:37.665Z,15.40
2019-02-28T11:38:09.635Z,15.00
2019-02-28T11:40:43.707Z,16.00
2019-02-28T11:43:15.447Z,15.70
2019-02-28T11:45:48.016Z,15.50
2019-02-28T11:48:20.593Z,14.80
2019-02-28T11:50:52.922Z,15.10
2019-02-28T11:53:25.035Z,14.80
2019-02-28T11:55:57.322Z,14.40
2019-02-28T11:58:32.331Z,13.90
2019-02-28T12:01:09.974Z,14.30
2019-02-28T12:03:38.859Z,14.20
2019-02-28T12:06:10.936Z,14.20
2019-02-28T12:08:45.827Z,14.00
2019-02-28T12:11:18.797Z,13.60
2019-02-28T12:13:51.604Z,13.10
2019-02-28T12:16:25.230Z,12.80
2019-02-28T12:18:57.761Z,13.00
2019-02-28T12:21:30.182Z,13.90
2019-02-28T12:24:02.318Z,14.10
2019-02-28T12:26:36.640Z,14.20
2019-02-28T12:29:12.808Z,15.40
2019-02-28T12:31:43.796Z,15.10
2019-02-28T12:34:18.734Z,14.00
2019-02-28T12:36:51.002Z,13.20
2019-02-28T12:39:23.746Z,13.00
2019-02-28T12:41:59.525Z,13.70
2019-02-28T12:44:31.292Z,13.40
2019-02-28T12:47:03.429Z,12.80
2019-02-28T12:49:37.079Z,13.20
2019-02-28T12:52:11.230Z,14.00
2019-02-28T12:54:42.849Z,14.60
2019-02-28T12:57:15.435Z,15.40
2019-02-28T12:59:47.698Z,14.90
2019-02-28T13:02:19.872Z,15.20
2019-02-28T13:04:51.818Z,15.70
2019-02-28T13:07:24.214Z,15.60
2019-02-28T13:09:56.798Z,15.10
2019-02-28T13:12:28.700Z,14.80
2019-02-28T13:15:00.847Z,15.30
2019-02-28T13:17:33.398Z,15.60
2019-02-28T13:20:07.556Z,16.30
2019-02-28T13:22:39.735Z,16.20
2019-02-28T13:25:11.932Z,14.80
2019-02-28T13:27:45.235Z,13.70
2019-02-28T13:30:23.708Z,14.10
2019-02-28T13:32:56.080Z,14.00
2019-02-28T13:35:30.628Z,15.90
2019-02-28T13:38:03.623Z,16.50
2019-02-28T13:40:36.712Z,15.10
2019-02-28T13:43:08.892Z,13.60
2019-02-28T13:45:41.494Z,13.20
2019-02-28T13:48:13.699Z,12.10
2019-02-28T13:50:45.799Z,11.50
2019-02-28T13:53:18.943Z,11.30
2019-02-28T13:55:52.766Z,11.90
2019-02-28T13:58:25.641Z,11.80
2019-02-28T14:00:57.755Z,12.10
2019-02-28T14:03:30.094Z,11.80
2019-02-28T14:06:02.272Z,11.50
2019-02-28T14:08:34.475Z,11.10
2019-02-28T14:11:10.159Z,10.90
2019-02-28T14:13:40.234Z,10.50
2019-02-28T14:16:12.964Z,10.70
2019-02-28T14:18:45.484Z,10.90
2019-02-28T14:21:19.111Z,11.00
2019-02-28T14:23:52.417Z,11.30
2019-02-28T14:26:25.141Z,11.40
2019-02-28T14:28:57.018Z,10.90
2019-02-28T14:31:29.558Z,10.60
2019-02-28T14:34:02.745Z,10.60
2019-02-28T14:36:35.025Z,10.30
2019-02-28T14:39:09.576Z,10.50
2019-02-28T14:41:41.423Z,10.70
2019-02-28T14:44:13.432Z,10.70
2019-02-28T14:46:45.270Z,11.40
2019-02-28T14:49:17.629Z,12.60
2019-02-28T14:51:50.098Z,12.40
2019-02-28T14:54:24.617Z,12.70
2019-02-28T14:56:55.546Z,12.20
2019-02-28T14:59:28.568Z,12.70
2019-02-28T15:02:01.426Z,13.20
2019-02-28T15:04:33.301Z,13.00
2019-02-28T15:07:05.293Z,13.10
2019-02-28T15:09:37.143Z,13.60
2019-02-28T15:12:09.650Z,13.90
2019-02-28T15:14:43.209Z,14.90
2019-02-28T15:17:17.606Z,16.20
2019-02-28T15:19:49.443Z,16.20
2019-02-28T15:22:21.357Z,16.10
2019-02-28T15:24:53.440Z,15.60
2019-02-28T15:27:25.892Z,15.50
2019-02-28T15:29:58.911Z,15.90
2019-02-28T15:32:32.251Z,16.40
2019-02-28T15:35:04.572Z,16.60
2019-02-28T15:37:36.721Z,16.60
2019-02-28T15:40:11.565Z,17.20
2019-02-28T15:42:44.123Z,18.10
2019-02-28T15:45:16.517Z,18.30
2019-02-28T15:47:51.152Z,18.10
2019-02-28T15:50:23.518Z,17.80
2019-02-28T15:52:55.873Z,18.00
2019-02-28T15:55:28.382Z,17.70
2019-02-28T15:58:02.779Z,18.90
2019-02-28T16:00:34.801Z,20.00
2019-02-28T16:03:06.917Z,20.30
2019-02-28T16:05:43.965Z,20.00
2019-02-28T16:08:12.899Z,20.00
2019-02-28T16:10:52.831Z,20.00
2019-02-28T16:13:22.648Z,21.30
2019-02-28T16:15:55.539Z,22.30
2019-02-28T16:18:27.478Z,23.00
2019-02-28T16:20:59.497Z,23.30
2019-02-28T16:23:31.975Z,23.60
2019-02-28T16:26:04.528Z,24.00
2019-02-28T16:28:36.405Z,24.20
2019-02-28T16:31:08.247Z,24.30
2019-02-28T16:33:43.494Z,24.40
2019-02-28T16:36:15.987Z,24.60
2019-02-28T16:38:48.634Z,24.70
2019-02-28T16:41:21.138Z,25.00
2019-02-28T16:43:55.547Z,25.50
2019-02-28T16:46:27.315Z,26.00
2019-02-28T16:48:59.697Z,26.10
2019-02-28T16:51:32.265Z,26.00
2019-02-28T16:54:05.189Z,26.20
2019-02-28T16:56:38.708Z,26.40
2019-02-28T16:59:13.336Z,26.80
2019-02-28T17:01:46.071Z,27.30
2019-02-28T17:04:18.657Z,28.40
2019-02-28T17:06:55.573Z,29.30
2019-02-28T17:09:43.565Z,31.20
2019-02-28T17:12:43.108Z,32.10
2019-02-28T17:15:24.112Z,33.00
2019-02-28T17:18:00.470Z,33.60
2019-02-28T17:20:32.469Z,33.90
2019-02-28T17:23:04.327Z,33.90
2019-02-28T17:25:36.487Z,33.80
2019-02-28T17:28:16.338Z,34.10
2019-02-28T17:31:12.708Z,34.30
2019-02-28T17:33:46.837Z,34.80
2019-02-28T17:36:20.607Z,35.00
2019-02-28T17:38:53.310Z,35.20
2019-02-28T17:41:25.623Z,35.40
2019-02-28T17:44:41.797Z,35.70
2019-02-28T17:48:13.588Z,36.10
2019-02-28T17:51:14.967Z,36.50
2019-02-28T17:54:29.175Z,36.50
2019-02-28T17:57:41.723Z,36.80
2019-02-28T18:00:54.562Z,37.90
2019-02-28T18:04:04.312Z,38.10
2019-02-28T18:07:27.534Z,38.30
2019-02-28T18:11:01.379Z,38.40
2019-02-28T18:14:27.788Z,38.50
2019-02-28T18:18:15.266Z,38.50
2019-02-28T18:21:29.267Z,38.70
2019-02-28T18:24:44.736Z,38.70
2019-02-28T18:28:27.429Z,38.80
2019-02-28T18:31:21.737Z,39.00
2019-02-28T18:33:57.603Z,38.90
2019-02-28T18:36:31.726Z,38.80
2019-02-28T18:39:04.892Z,38.60
2019-02-28T18:41:38.869Z,38.40
2019-02-28T18:44:12.019Z,38.30
2019-02-28T18:46:44.217Z,38.10
2019-02-28T18:49:16.095Z,38.20
2019-02-28T18:51:49.096Z,38.00
2019-02-28T18:54:21.411Z,38.40
2019-02-28T18:56:53.878Z,38.80
2019-02-28T18:59:25.863Z,39.40
2019-02-28T19:01:58.368Z,39.60
2019-02-28T19:04:30.216Z,40.40
2019-02-28T19:07:02.856Z,41.00
2019-02-28T19:09:35.360Z,41.50
2019-02-28T19:12:07.357Z,41.80
2019-02-28T19:14:39.288Z,42.20
2019-02-28T19:17:11.543Z,43.50
2019-02-28T19:19:43.789Z,44.40
2019-02-28T19:22:15.695Z,45.50
2019-02-28T19:24:48.586Z,46.20
2019-02-28T19:27:21.476Z,46.90
2019-02-28T19:29:53.447Z,47.10
2019-02-28T19:32:25.621Z,47.60
2019-02-28T19:34:57.797Z,48.00
2019-02-28T19:37:30.202Z,48.00
2019-02-28T19:40:02.351Z,48.20
2019-02-28T19:42:36.492Z,48.20
2019-02-28T19:45:14.697Z,48.20
2019-02-28T19:47:47.780Z,47.80
2019-02-28T19:50:19.663Z,47.60
2019-02-28T19:52:54.098Z,47.60
2019-02-28T19:55:26.930Z,47.60
2019-02-28T19:58:00.226Z,47.20
2019-02-28T20:00:34.509Z,47.00
2019-02-28T20:03:06.453Z,47.10
2019-02-28T20:05:38.927Z,47.10
2019-02-28T20:08:11.491Z,46.90
2019-02-28T20:10:43.641Z,47.30
2019-02-28T20:13:16.783Z,47.50
2019-02-28T20:15:48.818Z,47.50
2019-02-28T20:18:22.066Z,47.80
2019-02-28T20:20:54.048Z,47.90
2019-02-28T20:23:26.528Z,48.20
2019-02-28T20:25:59.032Z,48.10
2019-02-28T20:28:30.984Z,48.00
2019-02-28T20:31:03.250Z,48.10
2019-02-28T20:33:34.802Z,48.10
2019-02-28T20:36:06.981Z,48.10
2019-02-28T20:38:39.184Z,48.00
2019-02-28T20:41:11.381Z,47.70
2019-02-28T20:43:43.290Z,47.80
2019-02-28T20:46:15.608Z,47.40
2019-02-28T20:48:47.868Z,47.60
2019-02-28T20:51:19.984Z,47.70
2019-02-28T20:53:51.963Z,47.80
2019-02-28T20:56:24.233Z,47.60
2019-02-28T20:58:57.071Z,48.00
2019-02-28T21:01:29.709Z,47.00
2019-02-28T21:04:02.025Z,47.40
2019-02-28T21:06:34.175Z,48.20
2019-02-28T21:09:08.516Z,48.60
2019-02-28T21:11:40.688Z,48.90
2019-02-28T21:14:12.871Z,48.60
2019-02-28T21:16:48.179Z,48.70
2019-02-28T21:19:20.722Z,48.30
2019-02-28T21:21:54.131Z,48.30
2019-02-28T21:24:26.733Z,48.30
2019-02-28T21:27:00.091Z,48.10
2019-02-28T21:29:33.661Z,47.60
2019-02-28T21:32:05.965Z,46.90
2019-02-28T21:34:41.758Z,46.60
2019-02-28T21:37:18.960Z,46.80
2019-02-28T21:39:53.121Z,46.40
2019-02-28T21:42:25.358Z,46.00
2019-02-28T21:45:00.850Z,46.20
2019-02-28T21:47:36.104Z,46.60
2019-02-28T21:50:10.805Z,46.20
2019-02-28T21:52:44.909Z,45.60
2019-02-28T21:55:17.703Z,45.20
2019-02-28T21:57:49.642Z,44.60
2019-02-28T22:00:23.890Z,44.30
2019-02-28T22:02:55.738Z,44.50
2019-02-28T22:05:28.130Z,44.40
2019-02-28T22:08:00.094Z,44.50
2019-02-28T22:10:32.017Z,44.40
2019-02-28T22:13:04.143Z,44.20
2019-02-28T22:15:36.442Z,43.80
2019-02-28T22:18:08.686Z,43.80
2019-02-28T22:20:40.720Z,43.80
2019-02-28T22:23:12.676Z,43.50
2019-02-28T22:25:45.289Z,44.70
2019-02-28T22:28:17.263Z,45.10
2019-02-28T22:31:08.369Z,44.90
2019-02-28T22:33:46.844Z,44.50
2019-02-28T22:36:22.823Z,44.10
2019-02-28T22:38:54.672Z,43.50
2019-02-28T22:41:26.889Z,43.40
2019-02-28T22:43:59.057Z,43.40
2019-02-28T22:46:30.937Z,43.50
2019-02-28T22:49:03.309Z,43.90
2019-02-28T22:51:35.321Z,44.00
2019-02-28T22:54:07.162Z,43.70
2019-02-28T22:56:39.496Z,43.40
2019-02-28T22:59:12.361Z,43.70
2019-02-28T23:01:44.766Z,43.80
2019-02-28T23:04:19.481Z,43.70
2019-02-28T23:06:51.760Z,43.50
2019-02-28T23:09:23.646Z,43.50
2019-02-28T23:11:56.587Z,43.60
2019-02-28T23:14:28.385Z,43.30
2019-02-28T23:17:00.960Z,42.70
2019-02-28T23:19:32.829Z,42.90
2019-02-28T23:22:04.847Z,42.80
2019-02-28T23:24:37.654Z,43.40
2019-02-28T23:27:18.411Z,43.50
2019-02-28T23:30:47.175Z,43.70
2019-02-28T23:33:20.290Z,43.80
2019-02-28T23:35:53.277Z,43.70
2019-02-28T23:38:28.957Z,44.20
2019-02-28T23:41:07.203Z,44.40
2019-02-28T23:43:39.756Z,44.60
2019-02-28T23:46:11.910Z,44.20
2019-02-28T23:48:44.297Z,44.30
2019-02-28T23:51:16.155Z,44.90
2019-02-28T23:53:48.044Z,45.90
2019-02-28T23:56:21.118Z,46.80
2019-02-28T23:58:53.111Z,46.80
